Castleconnell, Ireland
Current Conditions -  °F | °C
As of 1:30 AM on Tuesday 25 Nov 2014 (Local Time) from EINN Reporting Station
Drizzle Drizzle  
Wind Chill: 41°   Ceiling: 1600
Heat Index: 45°   Visibility: 4mi
Dew Point: 45°   Wind: 7mph
Humidity: 100%   Direction: 30°NNE
Pressure: 30.24"   Gusts: NA
Location:  52.71°N, 8.5°W
Report Text: EINN 250130Z 03006KT 7000 -DZ FEW010 SCT013 OVC016 07/07 Q1024 TEMPO 5000 BKN010
Loading
Personal Weather Stations






























Interactive Weather Map New forecast layout! Learn more

10-Day Weather Forecast

Advertisements
Track Severe Weather on mobile